sensor_id;sensor_type;location;lat;lon;timestamp;P1;durP1;ratioP1;P2;durP2;ratioP2
61200;SDS011;47065;52.898;6.992;2022-08-19T00:00:25;11.02;;;8.18;;
61200;SDS011;47065;52.898;6.992;2022-08-19T00:02:52;8.57;;;7.72;;
61200;SDS011;47065;52.898;6.992;2022-08-19T00:05:19;9.30;;;6.85;;
61200;SDS011;47065;52.898;6.992;2022-08-19T00:07:46;9.95;;;7.50;;
61200;SDS011;47065;52.898;6.992;2022-08-19T00:10:13;9.40;;;7.85;;
61200;SDS011;47065;52.898;6.992;2022-08-19T00:12:39;9.70;;;8.70;;
61200;SDS011;47065;52.898;6.992;2022-08-19T00:15:07;10.95;;;8.07;;
61200;SDS011;47065;52.898;6.992;2022-08-19T00:17:38;9.10;;;8.05;;
61200;SDS011;47065;52.898;6.992;2022-08-19T00:20:05;10.32;;;7.32;;
61200;SDS011;47065;52.898;6.992;2022-08-19T00:22:31;7.40;;;5.90;;
61200;SDS011;47065;52.898;6.992;2022-08-19T00:24:58;5.32;;;4.82;;
61200;SDS011;47065;52.898;6.992;2022-08-19T00:27:24;5.55;;;4.95;;
61200;SDS011;47065;52.898;6.992;2022-08-19T00:29:50;7.72;;;5.40;;
61200;SDS011;47065;52.898;6.992;2022-08-19T00:32:16;6.10;;;5.50;;
61200;SDS011;47065;52.898;6.992;2022-08-19T00:34:42;8.20;;;5.93;;
61200;SDS011;47065;52.898;6.992;2022-08-19T00:37:08;7.53;;;6.13;;
61200;SDS011;47065;52.898;6.992;2022-08-19T00:39:34;8.45;;;6.50;;
61200;SDS011;47065;52.898;6.992;2022-08-19T00:42:00;7.88;;;7.03;;
61200;SDS011;47065;52.898;6.992;2022-08-19T00:44:27;6.82;;;6.13;;
61200;SDS011;47065;52.898;6.992;2022-08-19T00:46:55;6.05;;;5.45;;
61200;SDS011;47065;52.898;6.992;2022-08-19T00:49:26;6.90;;;6.00;;
61200;SDS011;47065;52.898;6.992;2022-08-19T00:51:54;9.88;;;6.57;;
61200;SDS011;47065;52.898;6.992;2022-08-19T00:54:24;7.57;;;6.80;;
61200;SDS011;47065;52.898;6.992;2022-08-19T00:56:50;8.25;;;6.38;;
61200;SDS011;47065;52.898;6.992;2022-08-19T00:59:16;7.50;;;6.63;;
61200;SDS011;47065;52.898;6.992;2022-08-19T01:01:43;9.90;;;7.07;;
61200;SDS011;47065;52.898;6.992;2022-08-19T01:04:10;7.13;;;6.43;;
61200;SDS011;47065;52.898;6.992;2022-08-19T01:06:36;7.30;;;6.40;;
61200;SDS011;47065;52.898;6.992;2022-08-19T01:09:06;8.43;;;6.93;;
61200;SDS011;47065;52.898;6.992;2022-08-19T01:11:33;7.07;;;5.65;;
61200;SDS011;47065;52.898;6.992;2022-08-19T01:14:01;7.88;;;6.60;;
61200;SDS011;47065;52.898;6.992;2022-08-19T01:16:27;6.78;;;5.53;;
61200;SDS011;47065;52.898;6.992;2022-08-19T01:18:54;6.68;;;5.25;;
61200;SDS011;47065;52.898;6.992;2022-08-19T01:24:07;7.38;;;5.47;;
61200;SDS011;47065;52.898;6.992;2022-08-19T01:26:37;6.72;;;5.28;;
61200;SDS011;47065;52.898;6.992;2022-08-19T01:29:06;3.45;;;3.15;;
61200;SDS011;47065;52.898;6.992;2022-08-19T01:31:33;2.55;;;2.35;;
61200;SDS011;47065;52.898;6.992;2022-08-19T01:33:59;4.20;;;2.80;;
61200;SDS011;47065;52.898;6.992;2022-08-19T01:36:27;3.22;;;2.92;;
61200;SDS011;47065;52.898;6.992;2022-08-19T01:38:57;3.25;;;2.78;;
61200;SDS011;47065;52.898;6.992;2022-08-19T01:41:23;3.53;;;3.00;;
61200;SDS011;47065;52.898;6.992;2022-08-19T01:43:50;4.70;;;3.20;;
61200;SDS011;47065;52.898;6.992;2022-08-19T01:46:17;5.63;;;2.97;;
61200;SDS011;47065;52.898;6.992;2022-08-19T01:48:44;2.67;;;2.40;;
61200;SDS011;47065;52.898;6.992;2022-08-19T01:51:11;5.25;;;2.38;;
61200;SDS011;47065;52.898;6.992;2022-08-19T01:53:37;4.15;;;2.00;;
61200;SDS011;47065;52.898;6.992;2022-08-19T01:56:03;4.28;;;3.80;;
61200;SDS011;47065;52.898;6.992;2022-08-19T01:58:31;3.58;;;3.08;;
61200;SDS011;47065;52.898;6.992;2022-08-19T02:01:01;6.60;;;4.68;;
61200;SDS011;47065;52.898;6.992;2022-08-19T02:03:27;7.45;;;2.40;;
61200;SDS011;47065;52.898;6.992;2022-08-19T02:06:00;5.47;;;4.13;;
61200;SDS011;47065;52.898;6.992;2022-08-19T02:08:30;5.80;;;3.88;;
61200;SDS011;47065;52.898;6.992;2022-08-19T02:10:58;7.95;;;6.05;;
61200;SDS011;47065;52.898;6.992;2022-08-19T02:13:24;8.50;;;6.47;;
61200;SDS011;47065;52.898;6.992;2022-08-19T02:15:50;12.50;;;7.20;;
61200;SDS011;47065;52.898;6.992;2022-08-19T02:18:16;9.75;;;7.55;;
61200;SDS011;47065;52.898;6.992;2022-08-19T02:20:42;15.73;;;9.07;;
61200;SDS011;47065;52.898;6.992;2022-08-19T02:23:09;11.45;;;8.77;;
61200;SDS011;47065;52.898;6.992;2022-08-19T02:25:36;30.33;;;11.18;;
61200;SDS011;47065;52.898;6.992;2022-08-19T02:28:03;11.50;;;8.00;;
61200;SDS011;47065;52.898;6.992;2022-08-19T02:30:29;8.38;;;4.85;;
61200;SDS011;47065;52.898;6.992;2022-08-19T02:32:55;5.47;;;3.40;;
61200;SDS011;47065;52.898;6.992;2022-08-19T02:35:21;4.05;;;3.33;;
61200;SDS011;47065;52.898;6.992;2022-08-19T02:37:47;3.70;;;2.30;;
61200;SDS011;47065;52.898;6.992;2022-08-19T02:40:32;3.78;;;2.40;;
61200;SDS011;47065;52.898;6.992;2022-08-19T02:42:59;6.65;;;3.28;;
61200;SDS011;47065;52.898;6.992;2022-08-19T02:45:26;4.38;;;3.85;;
61200;SDS011;47065;52.898;6.992;2022-08-19T02:47:51;10.05;;;2.58;;
61200;SDS011;47065;52.898;6.992;2022-08-19T02:50:17;36.05;;;3.50;;
61200;SDS011;47065;52.898;6.992;2022-08-19T02:52:43;13.15;;;4.00;;
61200;SDS011;47065;52.898;6.992;2022-08-19T02:55:10;14.23;;;3.42;;
61200;SDS011;47065;52.898;6.992;2022-08-19T02:57:35;37.38;;;5.32;;
61200;SDS011;47065;52.898;6.992;2022-08-19T03:00:03;16.95;;;4.75;;
61200;SDS011;47065;52.898;6.992;2022-08-19T03:02:31;5.82;;;3.75;;
61200;SDS011;47065;52.898;6.992;2022-08-19T03:04:57;18.70;;;5.55;;
61200;SDS011;47065;52.898;6.992;2022-08-19T03:07:22;8.60;;;3.88;;
61200;SDS011;47065;52.898;6.992;2022-08-19T03:09:48;13.25;;;4.00;;
61200;SDS011;47065;52.898;6.992;2022-08-19T03:12:13;17.25;;;4.55;;
61200;SDS011;47065;52.898;6.992;2022-08-19T03:14:39;14.75;;;4.38;;
61200;SDS011;47065;52.898;6.992;2022-08-19T03:17:05;6.25;;;2.95;;
61200;SDS011;47065;52.898;6.992;2022-08-19T03:19:30;19.58;;;3.17;;
61200;SDS011;47065;52.898;6.992;2022-08-19T03:21:56;20.27;;;2.78;;
61200;SDS011;47065;52.898;6.992;2022-08-19T03:24:23;50.67;;;4.70;;
61200;SDS011;47065;52.898;6.992;2022-08-19T03:26:50;35.05;;;3.67;;
61200;SDS011;47065;52.898;6.992;2022-08-19T03:29:19;40.25;;;4.55;;
61200;SDS011;47065;52.898;6.992;2022-08-19T03:31:45;5.55;;;2.67;;
61200;SDS011;47065;52.898;6.992;2022-08-19T03:34:12;32.22;;;6.32;;
61200;SDS011;47065;52.898;6.992;2022-08-19T03:36:39;11.27;;;6.35;;
61200;SDS011;47065;52.898;6.992;2022-08-19T03:39:05;14.27;;;6.00;;
61200;SDS011;47065;52.898;6.992;2022-08-19T03:41:39;68.10;;;8.82;;
61200;SDS011;47065;52.898;6.992;2022-08-19T03:44:06;32.30;;;8.85;;
61200;SDS011;47065;52.898;6.992;2022-08-19T03:46:33;67.05;;;8.35;;
61200;SDS011;47065;52.898;6.992;2022-08-19T03:49:01;47.28;;;8.20;;
61200;SDS011;47065;52.898;6.992;2022-08-19T03:51:31;15.65;;;6.28;;
61200;SDS011;47065;52.898;6.992;2022-08-19T03:54:00;64.85;;;8.63;;
61200;SDS011;47065;52.898;6.992;2022-08-19T03:56:28;28.98;;;8.07;;
61200;SDS011;47065;52.898;6.992;2022-08-19T03:58:55;57.40;;;7.35;;
61200;SDS011;47065;52.898;6.992;2022-08-19T04:01:22;8.25;;;5.68;;
61200;SDS011;47065;52.898;6.992;2022-08-19T04:03:51;15.30;;;5.90;;
61200;SDS011;47065;52.898;6.992;2022-08-19T04:06:19;43.97;;;8.20;;
61200;SDS011;47065;52.898;6.992;2022-08-19T04:08:48;49.40;;;8.55;;
61200;SDS011;47065;52.898;6.992;2022-08-19T04:11:17;38.78;;;7.43;;
61200;SDS011;47065;52.898;6.992;2022-08-19T04:13:46;92.95;;;10.57;;
61200;SDS011;47065;52.898;6.992;2022-08-19T04:16:12;79.20;;;9.82;;
61200;SDS011;47065;52.898;6.992;2022-08-19T04:18:38;11.68;;;6.78;;
61200;SDS011;47065;52.898;6.992;2022-08-19T04:21:05;33.10;;;7.03;;
61200;SDS011;47065;52.898;6.992;2022-08-19T04:23:32;34.08;;;6.68;;
61200;SDS011;47065;52.898;6.992;2022-08-19T04:25:58;35.78;;;5.90;;
61200;SDS011;47065;52.898;6.992;2022-08-19T04:28:23;12.68;;;4.70;;
61200;SDS011;47065;52.898;6.992;2022-08-19T04:30:51;14.40;;;4.78;;
61200;SDS011;47065;52.898;6.992;2022-08-19T04:33:19;13.40;;;5.40;;
61200;SDS011;47065;52.898;6.992;2022-08-19T04:35:48;13.32;;;5.47;;
61200;SDS011;47065;52.898;6.992;2022-08-19T04:38:16;27.50;;;5.80;;
61200;SDS011;47065;52.898;6.992;2022-08-19T04:40:48;9.05;;;5.72;;
61200;SDS011;47065;52.898;6.992;2022-08-19T04:43:35;47.50;;;7.68;;
61200;SDS011;47065;52.898;6.992;2022-08-19T04:46:10;34.78;;;8.07;;
61200;SDS011;47065;52.898;6.992;2022-08-19T04:48:38;24.63;;;7.22;;
61200;SDS011;47065;52.898;6.992;2022-08-19T04:51:09;92.50;;;9.77;;
61200;SDS011;47065;52.898;6.992;2022-08-19T04:53:38;33.20;;;7.73;;
61200;SDS011;47065;52.898;6.992;2022-08-19T04:56:10;43.33;;;9.05;;
61200;SDS011;47065;52.898;6.992;2022-08-19T04:58:38;64.25;;;9.63;;
61200;SDS011;47065;52.898;6.992;2022-08-19T05:01:07;29.25;;;8.20;;
61200;SDS011;47065;52.898;6.992;2022-08-19T05:03:43;15.50;;;7.55;;
61200;SDS011;47065;52.898;6.992;2022-08-19T05:06:11;20.35;;;6.57;;
61200;SDS011;47065;52.898;6.992;2022-08-19T05:08:38;11.88;;;6.75;;
61200;SDS011;47065;52.898;6.992;2022-08-19T05:11:18;16.35;;;9.27;;
61200;SDS011;47065;52.898;6.992;2022-08-19T05:13:46;26.35;;;8.32;;
61200;SDS011;47065;52.898;6.992;2022-08-19T05:16:13;71.80;;;8.50;;
61200;SDS011;47065;52.898;6.992;2022-08-19T05:18:40;20.92;;;7.00;;
61200;SDS011;47065;52.898;6.992;2022-08-19T05:21:25;39.05;;;7.65;;
61200;SDS011;47065;52.898;6.992;2022-08-19T05:24:11;26.17;;;8.13;;
61200;SDS011;47065;52.898;6.992;2022-08-19T05:26:42;11.57;;;7.32;;
61200;SDS011;47065;52.898;6.992;2022-08-19T05:29:13;19.38;;;8.13;;
61200;SDS011;47065;52.898;6.992;2022-08-19T05:31:41;21.33;;;8.88;;
61200;SDS011;47065;52.898;6.992;2022-08-19T05:34:08;14.82;;;9.80;;
61200;SDS011;47065;52.898;6.992;2022-08-19T05:36:36;25.88;;;14.40;;
61200;SDS011;47065;52.898;6.992;2022-08-19T05:39:05;43.13;;;20.15;;
61200;SDS011;47065;52.898;6.992;2022-08-19T05:41:32;32.38;;;16.60;;
61200;SDS011;47065;52.898;6.992;2022-08-19T05:43:58;25.45;;;14.07;;
61200;SDS011;47065;52.898;6.992;2022-08-19T05:46:27;32.17;;;15.35;;
61200;SDS011;47065;52.898;6.992;2022-08-19T05:48:53;36.80;;;18.48;;
61200;SDS011;47065;52.898;6.992;2022-08-19T05:51:21;38.17;;;17.38;;
61200;SDS011;47065;52.898;6.992;2022-08-19T05:53:48;37.42;;;19.55;;
61200;SDS011;47065;52.898;6.992;2022-08-19T05:56:14;44.35;;;22.90;;
61200;SDS011;47065;52.898;6.992;2022-08-19T05:58:41;53.72;;;24.90;;
61200;SDS011;47065;52.898;6.992;2022-08-19T06:01:10;49.80;;;23.08;;
61200;SDS011;47065;52.898;6.992;2022-08-19T06:03:39;56.08;;;27.55;;
61200;SDS011;47065;52.898;6.992;2022-08-19T06:06:06;62.60;;;28.92;;
61200;SDS011;47065;52.898;6.992;2022-08-19T06:08:33;76.75;;;30.30;;
61200;SDS011;47065;52.898;6.992;2022-08-19T06:13:48;67.95;;;29.98;;
61200;SDS011;47065;52.898;6.992;2022-08-19T06:16:18;61.53;;;30.20;;
61200;SDS011;47065;52.898;6.992;2022-08-19T06:18:47;51.03;;;26.88;;
61200;SDS011;47065;52.898;6.992;2022-08-19T06:21:17;63.58;;;29.92;;
61200;SDS011;47065;52.898;6.992;2022-08-19T06:23:44;56.03;;;27.48;;
61200;SDS011;47065;52.898;6.992;2022-08-19T06:26:11;57.58;;;29.20;;
61200;SDS011;47065;52.898;6.992;2022-08-19T06:28:37;65.43;;;30.25;;
61200;SDS011;47065;52.898;6.992;2022-08-19T06:31:07;60.00;;;30.60;;
61200;SDS011;47065;52.898;6.992;2022-08-19T06:33:33;50.67;;;28.65;;
61200;SDS011;47065;52.898;6.992;2022-08-19T06:35:59;60.75;;;31.05;;
61200;SDS011;47065;52.898;6.992;2022-08-19T06:38:25;57.83;;;31.27;;
61200;SDS011;47065;52.898;6.992;2022-08-19T06:40:50;63.58;;;31.25;;
61200;SDS011;47065;52.898;6.992;2022-08-19T06:43:16;50.50;;;28.02;;
61200;SDS011;47065;52.898;6.992;2022-08-19T06:45:41;56.65;;;29.45;;
61200;SDS011;47065;52.898;6.992;2022-08-19T06:48:07;48.78;;;27.42;;
61200;SDS011;47065;52.898;6.992;2022-08-19T06:50:32;50.53;;;29.35;;
61200;SDS011;47065;52.898;6.992;2022-08-19T06:52:58;47.28;;;25.90;;
61200;SDS011;47065;52.898;6.992;2022-08-19T06:55:24;45.22;;;25.23;;
61200;SDS011;47065;52.898;6.992;2022-08-19T06:57:49;41.65;;;25.08;;
61200;SDS011;47065;52.898;6.992;2022-08-19T07:00:18;38.88;;;23.35;;
61200;SDS011;47065;52.898;6.992;2022-08-19T07:02:44;40.05;;;23.77;;
61200;SDS011;47065;52.898;6.992;2022-08-19T07:05:10;36.67;;;23.17;;
61200;SDS011;47065;52.898;6.992;2022-08-19T07:07:35;37.45;;;24.63;;
61200;SDS011;47065;52.898;6.992;2022-08-19T07:10:01;28.45;;;20.38;;
61200;SDS011;47065;52.898;6.992;2022-08-19T07:12:29;28.95;;;19.65;;
61200;SDS011;47065;52.898;6.992;2022-08-19T07:14:59;23.65;;;18.10;;
61200;SDS011;47065;52.898;6.992;2022-08-19T07:17:25;23.88;;;16.00;;
61200;SDS011;47065;52.898;6.992;2022-08-19T07:19:51;16.92;;;13.60;;
61200;SDS011;47065;52.898;6.992;2022-08-19T07:22:17;19.85;;;15.10;;
61200;SDS011;47065;52.898;6.992;2022-08-19T07:24:45;20.77;;;14.77;;
61200;SDS011;47065;52.898;6.992;2022-08-19T07:27:13;16.35;;;12.60;;
61200;SDS011;47065;52.898;6.992;2022-08-19T07:29:39;17.15;;;12.98;;
61200;SDS011;47065;52.898;6.992;2022-08-19T07:32:06;20.02;;;12.20;;
61200;SDS011;47065;52.898;6.992;2022-08-19T07:34:32;15.35;;;11.60;;
61200;SDS011;47065;52.898;6.992;2022-08-19T07:37:03;16.08;;;12.70;;
61200;SDS011;47065;52.898;6.992;2022-08-19T07:39:31;15.90;;;13.20;;
61200;SDS011;47065;52.898;6.992;2022-08-19T07:41:59;13.00;;;11.63;;
61200;SDS011;47065;52.898;6.992;2022-08-19T07:44:26;14.88;;;12.32;;
61200;SDS011;47065;52.898;6.992;2022-08-19T07:46:53;15.98;;;11.98;;
61200;SDS011;47065;52.898;6.992;2022-08-19T07:49:21;17.50;;;12.93;;
61200;SDS011;47065;52.898;6.992;2022-08-19T07:51:48;15.90;;;12.52;;
61200;SDS011;47065;52.898;6.992;2022-08-19T07:54:17;15.10;;;12.20;;
61200;SDS011;47065;52.898;6.992;2022-08-19T07:56:44;16.45;;;13.35;;
61200;SDS011;47065;52.898;6.992;2022-08-19T07:59:10;13.98;;;12.25;;
61200;SDS011;47065;52.898;6.992;2022-08-19T08:01:36;15.27;;;12.60;;
61200;SDS011;47065;52.898;6.992;2022-08-19T08:04:05;15.85;;;11.93;;
61200;SDS011;47065;52.898;6.992;2022-08-19T08:06:50;14.35;;;11.68;;
61200;SDS011;47065;52.898;6.992;2022-08-19T08:09:37;13.95;;;11.88;;
61200;SDS011;47065;52.898;6.992;2022-08-19T08:12:07;13.85;;;12.48;;
61200;SDS011;47065;52.898;6.992;2022-08-19T08:14:37;16.30;;;11.98;;
61200;SDS011;47065;52.898;6.992;2022-08-19T08:17:06;15.20;;;12.15;;
61200;SDS011;47065;52.898;6.992;2022-08-19T08:19:33;16.65;;;11.95;;
61200;SDS011;47065;52.898;6.992;2022-08-19T08:22:00;13.60;;;12.13;;
61200;SDS011;47065;52.898;6.992;2022-08-19T08:24:29;14.45;;;11.30;;
61200;SDS011;47065;52.898;6.992;2022-08-19T08:26:56;13.80;;;10.90;;
61200;SDS011;47065;52.898;6.992;2022-08-19T08:29:24;12.75;;;10.80;;
61200;SDS011;47065;52.898;6.992;2022-08-19T08:31:50;17.05;;;10.75;;
61200;SDS011;47065;52.898;6.992;2022-08-19T08:34:17;15.00;;;11.77;;
61200;SDS011;47065;52.898;6.992;2022-08-19T08:36:44;17.20;;;11.10;;
61200;SDS011;47065;52.898;6.992;2022-08-19T08:39:18;11.40;;;9.90;;
61200;SDS011;47065;52.898;6.992;2022-08-19T08:45:03;8.80;;;7.88;;
61200;SDS011;47065;52.898;6.992;2022-08-19T08:47:43;9.02;;;7.75;;
61200;SDS011;47065;52.898;6.992;2022-08-19T08:50:23;9.40;;;8.20;;
61200;SDS011;47065;52.898;6.992;2022-08-19T08:52:55;11.45;;;7.32;;
61200;SDS011;47065;52.898;6.992;2022-08-19T08:55:24;9.68;;;7.57;;
61200;SDS011;47065;52.898;6.992;2022-08-19T08:57:55;7.53;;;6.85;;
61200;SDS011;47065;52.898;6.992;2022-08-19T09:00:33;8.52;;;7.20;;
61200;SDS011;47065;52.898;6.992;2022-08-19T09:03:24;7.97;;;6.45;;
61200;SDS011;47065;52.898;6.992;2022-08-19T09:05:57;7.32;;;6.60;;
61200;SDS011;47065;52.898;6.992;2022-08-19T09:08:48;6.45;;;4.55;;
61200;SDS011;47065;52.898;6.992;2022-08-19T09:11:22;5.68;;;4.88;;
61200;SDS011;47065;52.898;6.992;2022-08-19T09:14:10;7.75;;;6.85;;
61200;SDS011;47065;52.898;6.992;2022-08-19T09:16:46;5.82;;;5.22;;
61200;SDS011;47065;52.898;6.992;2022-08-19T09:19:13;5.70;;;4.68;;
61200;SDS011;47065;52.898;6.992;2022-08-19T09:21:39;5.53;;;5.13;;
61200;SDS011;47065;52.898;6.992;2022-08-19T09:24:05;6.65;;;5.95;;
61200;SDS011;47065;52.898;6.992;2022-08-19T09:26:31;5.65;;;5.22;;
61200;SDS011;47065;52.898;6.992;2022-08-19T09:28:57;5.43;;;4.93;;
61200;SDS011;47065;52.898;6.992;2022-08-19T09:31:25;4.70;;;4.30;;
61200;SDS011;47065;52.898;6.992;2022-08-19T09:33:52;6.22;;;5.50;;
61200;SDS011;47065;52.898;6.992;2022-08-19T09:36:22;5.78;;;4.63;;
61200;SDS011;47065;52.898;6.992;2022-08-19T09:38:50;5.90;;;4.70;;
61200;SDS011;47065;52.898;6.992;2022-08-19T09:41:18;5.82;;;4.38;;
61200;SDS011;47065;52.898;6.992;2022-08-19T09:43:46;6.70;;;4.28;;
61200;SDS011;47065;52.898;6.992;2022-08-19T09:46:16;5.28;;;4.88;;
61200;SDS011;47065;52.898;6.992;2022-08-19T09:48:44;5.15;;;4.65;;
61200;SDS011;47065;52.898;6.992;2022-08-19T09:51:13;5.28;;;4.63;;
61200;SDS011;47065;52.898;6.992;2022-08-19T09:53:42;4.95;;;3.67;;
61200;SDS011;47065;52.898;6.992;2022-08-19T09:56:09;4.63;;;4.28;;
61200;SDS011;47065;52.898;6.992;2022-08-19T09:58:37;4.53;;;2.83;;
61200;SDS011;47065;52.898;6.992;2022-08-19T10:01:03;4.45;;;4.00;;
61200;SDS011;47065;52.898;6.992;2022-08-19T10:03:31;6.90;;;4.07;;
61200;SDS011;47065;52.898;6.992;2022-08-19T10:05:58;4.65;;;4.25;;
61200;SDS011;47065;52.898;6.992;2022-08-19T10:08:30;5.18;;;4.78;;
61200;SDS011;47065;52.898;6.992;2022-08-19T10:10:58;4.72;;;4.43;;
61200;SDS011;47065;52.898;6.992;2022-08-19T10:13:25;4.63;;;4.32;;
61200;SDS011;47065;52.898;6.992;2022-08-19T10:15:53;4.57;;;4.28;;
61200;SDS011;47065;52.898;6.992;2022-08-19T10:18:21;4.55;;;4.15;;
61200;SDS011;47065;52.898;6.992;2022-08-19T10:20:48;3.45;;;3.15;;
61200;SDS011;47065;52.898;6.992;2022-08-19T10:23:16;3.88;;;3.50;;
61200;SDS011;47065;52.898;6.992;2022-08-19T10:25:42;5.07;;;3.83;;
61200;SDS011;47065;52.898;6.992;2022-08-19T10:28:09;4.00;;;3.70;;
61200;SDS011;47065;52.898;6.992;2022-08-19T10:30:37;3.55;;;3.10;;
61200;SDS011;47065;52.898;6.992;2022-08-19T10:33:03;4.28;;;3.35;;
61200;SDS011;47065;52.898;6.992;2022-08-19T10:35:30;4.38;;;3.95;;
61200;SDS011;47065;52.898;6.992;2022-08-19T10:37:56;4.53;;;4.10;;
61200;SDS011;47065;52.898;6.992;2022-08-19T10:40:27;4.35;;;4.03;;
61200;SDS011;47065;52.898;6.992;2022-08-19T10:42:56;4.78;;;4.32;;
61200;SDS011;47065;52.898;6.992;2022-08-19T10:45:22;4.72;;;4.32;;
61200;SDS011;47065;52.898;6.992;2022-08-19T10:47:50;4.20;;;3.65;;
61200;SDS011;47065;52.898;6.992;2022-08-19T10:50:17;3.95;;;3.72;;
61200;SDS011;47065;52.898;6.992;2022-08-19T10:53:03;5.88;;;4.43;;
61200;SDS011;47065;52.898;6.992;2022-08-19T10:55:30;5.05;;;4.55;;
61200;SDS011;47065;52.898;6.992;2022-08-19T10:58:16;5.43;;;3.50;;
61200;SDS011;47065;52.898;6.992;2022-08-19T11:00:52;3.35;;;3.05;;
61200;SDS011;47065;52.898;6.992;2022-08-19T11:03:20;5.85;;;3.88;;
61200;SDS011;47065;52.898;6.992;2022-08-19T11:05:46;3.65;;;3.33;;
61200;SDS011;47065;52.898;6.992;2022-08-19T11:08:13;6.57;;;4.20;;
61200;SDS011;47065;52.898;6.992;2022-08-19T11:10:42;4.85;;;4.45;;
61200;SDS011;47065;52.898;6.992;2022-08-19T11:13:09;5.47;;;3.88;;
61200;SDS011;47065;52.898;6.992;2022-08-19T11:15:34;4.32;;;3.50;;
61200;SDS011;47065;52.898;6.992;2022-08-19T11:18:00;5.68;;;4.60;;
61200;SDS011;47065;52.898;6.992;2022-08-19T11:20:25;4.57;;;4.18;;
61200;SDS011;47065;52.898;6.992;2022-08-19T11:22:52;4.93;;;3.80;;
61200;SDS011;47065;52.898;6.992;2022-08-19T11:25:18;4.43;;;3.80;;
61200;SDS011;47065;52.898;6.992;2022-08-19T11:27:44;6.68;;;5.00;;
61200;SDS011;47065;52.898;6.992;2022-08-19T11:30:11;5.40;;;4.60;;
61200;SDS011;47065;52.898;6.992;2022-08-19T11:32:38;4.10;;;3.80;;
61200;SDS011;47065;52.898;6.992;2022-08-19T11:35:07;5.80;;;4.85;;
61200;SDS011;47065;52.898;6.992;2022-08-19T11:37:33;6.57;;;4.30;;
61200;SDS011;47065;52.898;6.992;2022-08-19T11:40:03;3.95;;;3.55;;
61200;SDS011;47065;52.898;6.992;2022-08-19T11:42:29;5.38;;;4.88;;
61200;SDS011;47065;52.898;6.992;2022-08-19T11:45:14;5.05;;;4.55;;
61200;SDS011;47065;52.898;6.992;2022-08-19T11:47:39;5.35;;;4.85;;
61200;SDS011;47065;52.898;6.992;2022-08-19T11:50:05;6.85;;;6.20;;
61200;SDS011;47065;52.898;6.992;2022-08-19T11:52:31;6.57;;;5.63;;
61200;SDS011;47065;52.898;6.992;2022-08-19T11:54:57;6.07;;;5.47;;
61200;SDS011;47065;52.898;6.992;2022-08-19T11:57:22;7.50;;;5.50;;
61200;SDS011;47065;52.898;6.992;2022-08-19T11:59:49;5.68;;;5.28;;
61200;SDS011;47065;52.898;6.992;2022-08-19T12:02:16;6.40;;;4.88;;
61200;SDS011;47065;52.898;6.992;2022-08-19T12:04:42;6.20;;;5.60;;
61200;SDS011;47065;52.898;6.992;2022-08-19T12:07:07;5.93;;;5.30;;
61200;SDS011;47065;52.898;6.992;2022-08-19T12:09:33;6.95;;;6.30;;
61200;SDS011;47065;52.898;6.992;2022-08-19T12:11:59;7.05;;;6.10;;
61200;SDS011;47065;52.898;6.992;2022-08-19T12:14:26;7.88;;;5.90;;
61200;SDS011;47065;52.898;6.992;2022-08-19T12:16:55;5.28;;;4.78;;
61200;SDS011;47065;52.898;6.992;2022-08-19T12:19:21;6.15;;;5.45;;
61200;SDS011;47065;52.898;6.992;2022-08-19T12:21:47;8.18;;;6.85;;
61200;SDS011;47065;52.898;6.992;2022-08-19T12:24:13;7.72;;;6.75;;
61200;SDS011;47065;52.898;6.992;2022-08-19T12:26:39;5.78;;;5.22;;
61200;SDS011;47065;52.898;6.992;2022-08-19T12:29:05;8.20;;;5.43;;
61200;SDS011;47065;52.898;6.992;2022-08-19T12:31:33;6.35;;;5.20;;
61200;SDS011;47065;52.898;6.992;2022-08-19T12:33:59;7.07;;;5.72;;
61200;SDS011;47065;52.898;6.992;2022-08-19T12:36:27;4.63;;;4.22;;
61200;SDS011;47065;52.898;6.992;2022-08-19T12:38:53;6.22;;;4.72;;
61200;SDS011;47065;52.898;6.992;2022-08-19T12:41:18;5.03;;;4.45;;
61200;SDS011;47065;52.898;6.992;2022-08-19T12:43:47;5.03;;;4.53;;
61200;SDS011;47065;52.898;6.992;2022-08-19T12:46:15;7.10;;;4.90;;
61200;SDS011;47065;52.898;6.992;2022-08-19T12:48:40;5.78;;;5.28;;
61200;SDS011;47065;52.898;6.992;2022-08-19T12:51:07;5.68;;;5.03;;
61200;SDS011;47065;52.898;6.992;2022-08-19T12:53:35;5.88;;;5.22;;
61200;SDS011;47065;52.898;6.992;2022-08-19T12:56:01;5.97;;;5.47;;
61200;SDS011;47065;52.898;6.992;2022-08-19T12:58:27;5.28;;;4.78;;
61200;SDS011;47065;52.898;6.992;2022-08-19T13:00:54;6.72;;;4.40;;
61200;SDS011;47065;52.898;6.992;2022-08-19T13:03:20;6.18;;;4.70;;
61200;SDS011;47065;52.898;6.992;2022-08-19T13:05:50;5.68;;;5.18;;
61200;SDS011;47065;52.898;6.992;2022-08-19T13:08:16;6.60;;;5.90;;
61200;SDS011;47065;52.898;6.992;2022-08-19T13:10:42;6.47;;;5.25;;
61200;SDS011;47065;52.898;6.992;2022-08-19T13:13:08;4.90;;;4.50;;
61200;SDS011;47065;52.898;6.992;2022-08-19T13:15:38;6.15;;;4.70;;
61200;SDS011;47065;52.898;6.992;2022-08-19T13:18:05;5.47;;;5.07;;
61200;SDS011;47065;52.898;6.992;2022-08-19T13:20:34;5.50;;;4.60;;
61200;SDS011;47065;52.898;6.992;2022-08-19T13:23:00;4.90;;;4.30;;
61200;SDS011;47065;52.898;6.992;2022-08-19T13:25:26;6.78;;;5.35;;
61200;SDS011;47065;52.898;6.992;2022-08-19T13:27:52;4.82;;;4.43;;
61200;SDS011;47065;52.898;6.992;2022-08-19T13:30:19;6.80;;;6.07;;
61200;SDS011;47065;52.898;6.992;2022-08-19T13:33:03;5.32;;;4.80;;
61200;SDS011;47065;52.898;6.992;2022-08-19T13:35:36;6.10;;;5.60;;
61200;SDS011;47065;52.898;6.992;2022-08-19T13:38:12;7.20;;;5.97;;
61200;SDS011;47065;52.898;6.992;2022-08-19T13:40:41;7.20;;;5.88;;
61200;SDS011;47065;52.898;6.992;2022-08-19T13:43:07;6.28;;;5.70;;
61200;SDS011;47065;52.898;6.992;2022-08-19T13:45:34;4.75;;;4.35;;
61200;SDS011;47065;52.898;6.992;2022-08-19T13:48:01;4.78;;;4.32;;
61200;SDS011;47065;52.898;6.992;2022-08-19T13:50:32;4.18;;;3.88;;
61200;SDS011;47065;52.898;6.992;2022-08-19T13:52:59;4.50;;;4.03;;
61200;SDS011;47065;52.898;6.992;2022-08-19T13:55:26;4.68;;;4.28;;
61200;SDS011;47065;52.898;6.992;2022-08-19T13:57:53;4.00;;;3.60;;
61200;SDS011;47065;52.898;6.992;2022-08-19T14:00:21;2.92;;;2.63;;
61200;SDS011;47065;52.898;6.992;2022-08-19T14:02:50;2.72;;;2.53;;
61200;SDS011;47065;52.898;6.992;2022-08-19T14:05:17;2.65;;;2.20;;
61200;SDS011;47065;52.898;6.992;2022-08-19T14:07:43;1.83;;;1.73;;
61200;SDS011;47065;52.898;6.992;2022-08-19T14:10:10;2.60;;;1.88;;
61200;SDS011;47065;52.898;6.992;2022-08-19T14:12:37;1.58;;;1.33;;
61200;SDS011;47065;52.898;6.992;2022-08-19T14:15:03;1.50;;;1.40;;
61200;SDS011;47065;52.898;6.992;2022-08-19T14:17:30;2.72;;;2.40;;
61200;SDS011;47065;52.898;6.992;2022-08-19T14:19:57;2.97;;;2.50;;
61200;SDS011;47065;52.898;6.992;2022-08-19T14:22:25;2.60;;;2.40;;
61200;SDS011;47065;52.898;6.992;2022-08-19T14:24:51;3.92;;;2.97;;
61200;SDS011;47065;52.898;6.992;2022-08-19T14:27:17;2.63;;;2.42;;
61200;SDS011;47065;52.898;6.992;2022-08-19T14:29:42;4.38;;;2.92;;
61200;SDS011;47065;52.898;6.992;2022-08-19T14:32:09;3.92;;;3.00;;
61200;SDS011;47065;52.898;6.992;2022-08-19T14:34:35;3.00;;;2.75;;
61200;SDS011;47065;52.898;6.992;2022-08-19T14:37:02;2.60;;;2.40;;
61200;SDS011;47065;52.898;6.992;2022-08-19T14:39:28;2.40;;;2.20;;
61200;SDS011;47065;52.898;6.992;2022-08-19T14:41:54;2.88;;;2.67;;
61200;SDS011;47065;52.898;6.992;2022-08-19T14:44:19;3.00;;;2.78;;
61200;SDS011;47065;52.898;6.992;2022-08-19T14:46:45;3.40;;;2.90;;
61200;SDS011;47065;52.898;6.992;2022-08-19T14:49:11;4.05;;;2.90;;
61200;SDS011;47065;52.898;6.992;2022-08-19T14:51:36;2.92;;;2.72;;
61200;SDS011;47065;52.898;6.992;2022-08-19T14:54:02;4.28;;;3.83;;